Time;durP1;ratioP1;P1;durP2;ratioP2;P2;SDS_P1;SDS_P2;PMS_P1;PMS_P2;Temp;Humidity;BMP_temperature;BMP_pressure;BME280_temperature;BME280_humidity;BME280_pressure;Samples;Min_cycle;Max_cycle;Signal;HPM_P1;HPM_P2
2022/08/03 00:00:54;;;;;;;5.73;4.20;;;22.30;99.90;;;;;;6157643;28;20235;-62
2022/08/03 00:03:57;;;;;;;4.83;4.43;;;22.20;99.90;;;;;;6157557;28;20246;-62
2022/08/03 00:07:00;;;;;;;5.37;4.97;;;22.30;99.90;;;;;;6157789;28;20242;-62
2022/08/03 00:10:05;;;;;;;4.73;4.20;;;22.20;99.90;;;;;;6156518;28;20238;-62
2022/08/03 00:13:11;;;;;;;4.67;4.37;;;22.20;99.90;;;;;;6156739;28;20249;-62
2022/08/03 00:16:14;;;;;;;5.60;5.00;;;22.20;99.90;;;;;;6156583;28;20230;-62
2022/08/03 00:19:18;;;;;;;5.17;4.80;;;22.20;99.90;;;;;;6156849;28;20238;-62
2022/08/03 00:22:21;;;;;;;4.27;3.97;;;22.20;99.90;;;;;;6156678;28;20238;-62
2022/08/03 00:25:27;;;;;;;4.40;4.10;;;22.10;99.90;;;;;;6156997;28;20582;-62
2022/08/03 00:28:30;;;;;;;4.20;3.40;;;22.10;99.90;;;;;;6156908;28;20235;-62
2022/08/03 00:31:33;;;;;;;4.80;4.40;;;22.10;99.90;;;;;;6157198;28;20239;-62
2022/08/03 00:34:54;;;;;;;5.03;4.70;;;22.00;99.90;;;;;;6156495;28;20687;-62
2022/08/03 00:38:00;;;;;;;7.13;4.40;;;22.00;99.90;;;;;;6156420;28;20239;-62
2022/08/03 00:41:05;;;;;;;4.80;4.40;;;22.00;99.90;;;;;;6155354;28;20235;-62
2022/08/03 00:44:08;;;;;;;5.50;5.00;;;22.00;99.90;;;;;;6155705;28;20246;-62
2022/08/03 00:47:12;;;;;;;5.07;4.70;;;21.90;99.90;;;;;;6156189;28;20231;-62
2022/08/03 00:50:16;;;;;;;5.57;5.17;;;21.80;99.90;;;;;;6156336;28;20235;-62
2022/08/03 00:53:19;;;;;;;4.47;4.17;;;21.80;99.90;;;;;;6146728;28;20243;-62
2022/08/03 00:56:24;;;;;;;5.53;5.03;;;21.70;99.90;;;;;;6155551;28;20235;-62
2022/08/03 00:59:27;;;;;;;6.07;5.00;;;21.60;99.90;;;;;;6155572;28;20242;-62
2022/08/03 01:02:31;;;;;;;5.10;4.53;;;21.60;99.90;;;;;;6155307;28;20235;-62
2022/08/03 01:05:42;;;;;;;6.40;5.80;;;21.70;99.90;;;;;;6155717;28;20231;-62
2022/08/03 01:09:00;;;;;;;5.80;5.40;;;21.70;99.90;;;;;;6155393;28;20679;-62
2022/08/03 01:12:13;;;;;;;4.67;4.33;;;21.70;99.90;;;;;;6155760;28;20231;-62
2022/08/03 01:15:24;;;;;;;5.27;4.90;;;21.70;99.90;;;;;;6155088;28;20632;-62
2022/08/03 01:18:36;;;;;;;5.17;4.77;;;21.60;99.90;;;;;;6155414;28;20587;-62
2022/08/03 01:21:54;;;;;;;4.63;4.33;;;21.60;99.90;;;;;;6155079;28;20232;-62
2022/08/03 01:25:06;;;;;;;5.13;4.73;;;21.60;99.90;;;;;;6155485;28;20224;-62
2022/08/03 01:28:25;;;;;;;5.23;4.90;;;21.60;99.90;;;;;;6155332;28;20606;-62
2022/08/03 01:31:36;;;;;;;5.97;4.27;;;21.60;99.90;;;;;;6155621;28;20547;-62
2022/08/03 01:35:04;;;;;;;5.07;4.77;;;21.60;99.90;;;;;;6155216;28;20235;-62
2022/08/03 01:38:14;;;;;;;4.37;4.07;;;21.50;99.90;;;;;;6155476;28;20242;-62
2022/08/03 01:41:20;;;;;;;5.53;5.13;;;21.40;99.90;;;;;;6154961;28;20227;-62
2022/08/03 01:44:25;;;;;;;4.77;4.47;;;21.40;99.90;;;;;;6154759;28;20576;-62
2022/08/03 01:47:34;;;;;;;5.53;5.03;;;21.40;99.90;;;;;;6154892;28;20313;-62
2022/08/03 01:50:38;;;;;;;5.17;4.77;;;21.40;99.90;;;;;;6154273;28;20238;-62
2022/08/03 01:53:42;;;;;;;4.57;4.27;;;21.30;99.90;;;;;;6154044;28;20249;-62
2022/08/03 01:56:48;;;;;;;5.53;5.03;;;21.30;99.90;;;;;;6150339;28;20676;-62
2022/08/03 01:59:54;;;;;;;4.50;4.20;;;21.20;99.90;;;;;;6154673;28;20243;-62
2022/08/03 02:02:59;;;;;;;6.00;4.60;;;21.30;99.90;;;;;;6154836;28;20231;-62
2022/08/03 02:06:02;;;;;;;4.90;4.50;;;21.30;99.90;;;;;;6154762;28;20675;-62
2022/08/03 02:09:27;;;;;;;5.20;4.70;;;21.30;99.90;;;;;;6154071;28;20537;-62
2022/08/03 02:12:32;;;;;;;5.07;4.70;;;21.20;99.90;;;;;;6153938;28;20355;-62
2022/08/03 02:15:36;;;;;;;4.90;4.50;;;21.20;99.90;;;;;;6154393;28;20309;-62
2022/08/03 02:18:42;;;;;;;5.10;4.60;;;21.10;99.90;;;;;;6154476;28;20253;-62
2022/08/03 02:21:46;;;;;;;5.30;4.80;;;21.00;99.90;;;;;;6154452;28;20234;-60
2022/08/03 02:25:02;;;;;;;5.23;4.80;;;21.00;99.90;;;;;;6153806;28;20223;-60
2022/08/03 02:28:10;;;;;;;6.37;5.13;;;20.90;99.90;;;;;;6154290;28;20237;-61
2022/08/03 02:31:17;;;;;;;5.40;5.00;;;20.90;99.90;;;;;;6154204;28;20241;-61
2022/08/03 02:34:25;;;;;;;4.80;4.50;;;20.70;99.90;;;;;;6154181;28;20265;-61
2022/08/03 02:37:32;;;;;;;5.47;4.97;;;20.80;99.90;;;;;;6154144;28;20250;-61
2022/08/03 02:40:37;;;;;;;5.30;4.53;;;20.80;99.90;;;;;;6153812;28;20236;-61
2022/08/03 02:43:42;;;;;;;4.73;4.33;;;20.80;99.90;;;;;;6153512;28;20239;-61
2022/08/03 02:47:11;;;;;;;5.27;4.93;;;20.90;99.90;;;;;;6153684;28;20232;-61
2022/08/03 02:50:17;;;;;;;7.13;5.13;;;20.90;99.90;;;;;;6153587;28;20234;-61
2022/08/03 02:53:22;;;;;;;5.20;4.80;;;20.90;99.90;;;;;;6153302;28;20684;-61
2022/08/03 02:56:26;;;;;;;4.50;4.10;;;20.90;99.90;;;;;;6153570;28;20587;-61
2022/08/03 02:59:31;;;;;;;4.37;4.07;;;20.80;99.90;;;;;;6149265;28;20231;-61
2022/08/03 03:02:36;;;;;;;5.60;5.10;;;20.90;99.90;;;;;;6152758;28;20239;-61
2022/08/03 03:05:42;;;;;;;6.20;5.10;;;20.80;99.90;;;;;;6153429;28;20227;-61
2022/08/03 03:09:00;;;;;;;5.10;4.70;;;20.80;99.90;;;;;;6152911;28;20242;-61
2022/08/03 03:12:04;;;;;;;6.03;4.40;;;20.80;99.90;;;;;;6152645;28;20243;-61
2022/08/03 03:15:08;;;;;;;4.73;4.33;;;20.70;99.90;;;;;;6153278;28;20227;-61
2022/08/03 03:18:12;;;;;;;5.47;4.67;;;20.70;99.90;;;;;;6152683;28;20242;-61
2022/08/03 03:21:19;;;;;;;5.53;5.10;;;20.70;99.90;;;;;;6153305;28;20247;-61
2022/08/03 03:24:23;;;;;;;5.90;4.77;;;20.70;99.90;;;;;;6208342;23;20237;-61
2022/08/03 03:27:27;;;;;;;5.47;5.07;;;20.70;99.90;;;;;;6225705;28;20546;-61
2022/08/03 03:30:31;;;;;;;5.50;5.00;;;20.70;99.90;;;;;;6225422;28;20657;-61
2022/08/03 03:33:35;;;;;;;4.60;4.30;;;20.70;99.90;;;;;;6225985;28;20217;-62
2022/08/03 03:36:40;;;;;;;5.60;5.20;;;20.70;99.90;;;;;;6226042;28;20240;-62
2022/08/03 03:39:43;;;;;;;5.60;5.07;;;20.70;99.90;;;;;;6226413;28;20225;-62
2022/08/03 03:42:46;;;;;;;5.10;4.70;;;20.60;99.90;;;;;;6225337;28;20236;-62
2022/08/03 03:45:50;;;;;;;6.07;5.47;;;20.60;99.90;;;;;;6225564;28;20239;-62
2022/08/03 03:48:53;;;;;;;5.23;4.80;;;20.50;99.90;;;;;;6225112;28;20307;-62
2022/08/03 03:51:58;;;;;;;5.87;3.77;;;20.50;99.90;;;;;;6225229;28;20664;-62
2022/08/03 03:55:01;;;;;;;4.67;4.27;;;20.50;99.90;;;;;;6224613;28;20553;-62
2022/08/03 03:58:04;;;;;;;4.57;4.17;;;20.50;99.90;;;;;;6225163;28;20229;-62
2022/08/03 04:01:08;;;;;;;5.30;4.80;;;20.50;99.90;;;;;;6220383;28;20229;-62
2022/08/03 04:11:09;;;;;;;5.43;5.03;;;20.50;99.90;;;;;;6224780;28;20233;-62
2022/08/03 04:14:16;;;;;;;5.20;4.80;;;20.50;99.90;;;;;;6224725;28;20233;-62
2022/08/03 04:17:21;;;;;;;5.37;4.87;;;20.50;99.90;;;;;;6229352;28;20240;-62
2022/08/03 04:20:26;;;;;;;4.63;4.33;;;20.60;99.90;;;;;;6228950;28;20229;-62
2022/08/03 04:23:34;;;;;;;6.03;5.47;;;20.70;99.90;;;;;;6228887;28;20229;-62
2022/08/03 04:26:39;;;;;;;5.63;5.20;;;20.70;99.90;;;;;;6228967;28;20608;-62
2022/08/03 04:29:47;;;;;;;5.47;4.97;;;20.80;99.90;;;;;;6229496;28;20699;-62
2022/08/03 04:32:51;;;;;;;5.47;4.97;;;20.90;99.90;;;;;;6229049;28;20237;-62
2022/08/03 04:35:58;;;;;;;4.90;4.50;;;20.90;99.90;;;;;;6229176;28;20240;-62
2022/08/03 04:39:10;;;;;;;4.97;4.57;;;21.10;99.90;;;;;;6228649;28;20812;-62
2022/08/03 04:42:14;;;;;;;5.23;4.73;;;21.10;99.90;;;;;;6228409;28;20241;-62
2022/08/03 04:45:19;;;;;;;4.47;4.17;;;21.20;99.90;;;;;;6228864;28;20580;-62
2022/08/03 04:48:22;;;;;;;5.60;5.20;;;21.40;99.90;;;;;;6228823;28;20205;-62
2022/08/03 04:51:26;;;;;;;6.40;5.90;;;21.60;99.90;;;;;;6228753;28;20213;-61
2022/08/03 04:54:31;;;;;;;5.17;4.77;;;21.70;99.90;;;;;;6228662;28;20200;-61
2022/08/03 04:57:34;;;;;;;5.40;4.90;;;21.70;99.90;;;;;;6228255;28;20554;-61
2022/08/03 05:00:37;;;;;;;5.57;5.17;;;21.80;99.90;;;;;;6228369;28;20645;-62
2022/08/03 05:03:40;;;;;;;5.50;5.00;;;21.90;99.90;;;;;;6219173;28;20244;-62
2022/08/03 05:06:43;;;;;;;6.50;5.90;;;22.00;99.90;;;;;;6228346;28;20240;-62
2022/08/03 05:09:51;;;;;;;5.93;5.50;;;22.10;99.90;;;;;;6227649;28;20658;-62
2022/08/03 05:13:05;;;;;;;6.30;5.33;;;22.10;99.90;;;;;;6227766;28;20237;-62
2022/08/03 05:16:08;;;;;;;5.83;5.33;;;22.10;99.90;;;;;;6227878;28;20229;-62
2022/08/03 05:19:11;;;;;;;6.03;5.53;;;22.20;99.90;;;;;;6227859;28;20225;-62
2022/08/03 05:22:14;;;;;;;6.40;5.80;;;22.30;99.90;;;;;;6227840;28;20244;-62
2022/08/03 05:25:19;;;;;;;6.83;6.20;;;22.50;99.90;;;;;;6227041;28;20340;-62
2022/08/03 05:28:29;;;;;;;5.83;5.30;;;22.80;99.90;;;;;;6227725;28;20231;-62
2022/08/03 05:31:32;;;;;;;7.20;6.53;;;22.90;99.90;;;;;;6227279;28;20232;-62
2022/08/03 05:34:35;;;;;;;6.50;5.90;;;23.20;99.90;;;;;;6228291;28;20241;-62
2022/08/03 05:37:38;;;;;;;7.00;6.30;;;23.40;99.90;;;;;;6227946;28;20688;-62
2022/08/03 05:40:58;;;;;;;9.90;8.97;;;23.50;99.90;;;;;;6227627;28;20740;-62
2022/08/03 05:44:24;;;;;;;13.10;9.87;;;23.70;99.90;;;;;;6228051;28;20233;-62
2022/08/03 05:47:27;;;;;;;13.57;10.77;;;23.70;99.90;;;;;;6227356;28;20228;-62
2022/08/03 05:50:30;;;;;;;6.53;5.93;;;24.00;99.90;;;;;;6227074;28;20251;-62
2022/08/03 05:53:33;;;;;;;15.37;11.83;;;24.40;99.90;;;;;;6227381;28;20237;-62
2022/08/03 05:56:39;;;;;;;18.67;12.57;;;24.90;99.90;;;;;;6226281;28;20244;-62
2022/08/03 05:59:42;;;;;;;10.73;8.87;;;25.40;99.00;;;;;;6226249;28;20240;-62
2022/08/03 06:03:01;;;;;;;8.50;7.07;;;25.80;97.90;;;;;;6225934;28;20225;-62
2022/08/03 06:06:04;;;;;;;27.33;16.90;;;26.30;97.20;;;;;;6225884;28;20652;-61
2022/08/03 06:09:08;;;;;;;25.43;21.63;;;27.00;95.70;;;;;;6221409;28;20255;-62
2022/08/03 06:12:12;;;;;;;17.70;15.97;;;27.30;94.60;;;;;;6226484;28;20236;-62
2022/08/03 06:15:17;;;;;;;8.70;7.80;;;27.70;94.00;;;;;;6226096;28;20224;-64
2022/08/03 06:18:20;;;;;;;25.73;23.03;;;28.10;93.00;;;;;;6224493;28;20225;-62
2022/08/03 06:21:23;;;;;;;10.40;9.43;;;28.60;91.90;;;;;;6225493;28;20201;-62
2022/08/03 06:24:29;;;;;;;26.17;23.40;;;28.90;91.00;;;;;;6224983;28;20684;-63
2022/08/03 06:27:33;;;;;;;9.97;6.73;;;29.40;90.00;;;;;;6225263;28;20219;-63
2022/08/03 06:30:39;;;;;;;7.30;5.77;;;29.70;88.30;;;;;;6225065;28;20618;-63
2022/08/03 06:33:43;;;;;;;33.80;30.30;;;30.40;85.30;;;;;;6226668;28;20325;-63
2022/08/03 06:37:06;;;;;;;9.00;7.00;;;31.20;81.50;;;;;;6225294;28;20236;-63
2022/08/03 06:40:11;;;;;;;5.88;5.20;;;31.30;78.80;;;;;;6226329;28;20225;-64
2022/08/03 06:43:17;;;;;;;6.30;5.70;;;31.70;77.30;;;;;;6225482;28;20289;-63
2022/08/03 06:46:21;;;;;;;5.07;4.63;;;32.40;74.30;;;;;;6225825;28;20228;-63
2022/08/03 06:49:24;;;;;;;5.68;5.18;;;32.90;71.50;;;;;;6226085;28;20322;-63
2022/08/03 06:52:28;;;;;;;7.13;6.32;;;33.50;68.60;;;;;;6225772;28;20232;-63
2022/08/03 06:55:40;;;;;;;7.32;6.53;;;34.30;66.00;;;;;;6225406;28;20259;-63
2022/08/03 06:58:46;;;;;;;11.27;10.18;;;34.60;62.30;;;;;;6225928;28;20669;-62
2022/08/03 07:01:49;;;;;;;6.25;5.75;;;34.90;60.10;;;;;;6224676;28;20232;-61
2022/08/03 07:04:52;;;;;;;4.32;4.03;;;35.40;59.00;;;;;;6224586;28;20224;-61
2022/08/03 07:07:57;;;;;;;4.22;3.92;;;36.10;56.40;;;;;;6225251;28;20229;-62
2022/08/03 07:11:01;;;;;;;3.05;2.85;;;36.80;54.20;;;;;;6225726;28;20235;-62
2022/08/03 07:14:06;;;;;;;2.95;2.72;;;37.30;52.10;;;;;;6220924;28;20237;-62
2022/08/03 07:17:09;;;;;;;3.45;3.15;;;38.10;49.80;;;;;;6225196;28;20228;-62
2022/08/03 07:20:14;;;;;;;3.30;3.00;;;38.40;48.10;;;;;;6224948;28;20224;-62
2022/08/03 07:23:17;;;;;;;4.05;3.20;;;38.10;48.00;;;;;;6224842;28;20327;-62
2022/08/03 07:26:21;;;;;;;3.55;3.28;;;37.40;47.60;;;;;;6224939;28;20236;-62
2022/08/03 07:29:25;;;;;;;3.05;2.75;;;38.20;47.00;;;;;;6225520;28;20235;-62
2022/08/03 07:32:30;;;;;;;3.20;3.00;;;38.90;44.70;;;;;;6224733;28;20235;-64
2022/08/03 07:35:33;;;;;;;5.93;2.97;;;39.10;42.40;;;;;;6223198;28;20220;-63
2022/08/03 07:38:37;;;;;;;2.33;2.22;;;40.00;41.30;;;;;;6223084;28;20220;-63
2022/08/03 07:41:40;;;;;;;2.80;2.60;;;40.00;40.70;;;;;;6222709;28;20247;-63
2022/08/03 07:44:45;;;;;;;2.28;2.08;;;40.80;38.30;;;;;;6221727;28;20223;-63
2022/08/03 07:47:48;;;;;;;2.35;2.22;;;41.30;36.30;;;;;;6223948;28;20225;-63
2022/08/03 07:50:55;;;;;;;2.50;2.30;;;40.80;37.50;;;;;;6227389;28;20224;-63
2022/08/03 07:53:59;;;;;;;3.53;2.50;;;41.40;36.40;;;;;;6229059;28;20224;-63
2022/08/03 07:57:03;;;;;;;2.20;2.10;;;41.40;35.60;;;;;;6226330;28;20868;-63
2022/08/03 08:00:14;;;;;;;2.15;2.03;;;40.70;36.20;;;;;;6229122;28;20221;-64
2022/08/03 08:03:17;;;;;;;2.80;2.60;;;42.40;34.60;;;;;;6228858;28;20224;-63
2022/08/03 08:06:21;;;;;;;2.53;2.33;;;43.50;33.30;;;;;;6228673;28;20221;-63
2022/08/03 08:09:24;;;;;;;2.40;2.17;;;43.50;31.90;;;;;;6229439;28;20204;-62
2022/08/03 08:12:30;;;;;;;2.60;2.40;;;43.80;31.20;;;;;;6228310;28;20363;-63
2022/08/03 08:15:35;;;;;;;2.55;2.35;;;44.40;30.80;;;;;;6218948;28;20644;-62
2022/08/03 08:18:44;;;;;;;2.55;2.35;;;44.40;30.90;;;;;;6228038;28;20229;-62
2022/08/03 08:21:48;;;;;;;2.35;2.17;;;45.60;29.80;;;;;;6229442;28;20232;-62
2022/08/03 08:25:04;;;;;;;3.20;2.70;;;45.70;29.70;;;;;;6228632;28;20671;-63
2022/08/03 08:28:07;;;;;;;2.13;2.03;;;46.70;29.00;;;;;;6228664;28;20228;-63
2022/08/03 08:31:32;;;;;;;2.42;2.22;;;47.20;28.20;;;;;;6228660;28;20237;-63
2022/08/03 08:34:35;;;;;;;3.53;2.35;;;47.50;28.30;;;;;;6228087;28;20676;-63
2022/08/03 08:37:39;;;;;;;2.45;2.35;;;47.50;28.00;;;;;;6228564;28;20228;-63
2022/08/03 08:40:42;;;;;;;3.10;2.90;;;46.90;28.40;;;;;;6228378;28;20254;-63
2022/08/03 08:43:45;;;;;;;3.38;2.90;;;45.20;29.50;;;;;;6226893;28;20586;-62
2022/08/03 08:46:53;;;;;;;2.80;2.47;;;43.80;31.00;;;;;;6227270;28;20321;-62
2022/08/03 08:49:59;;;;;;;2.95;2.75;;;42.60;32.20;;;;;;6228172;28;20250;-62
2022/08/03 08:53:13;;;;;;;2.78;2.60;;;41.50;33.40;;;;;;6238051;28;20640;-62
2022/08/03 08:56:25;;;;;;;4.47;3.20;;;40.30;35.30;;;;;;6228433;28;20233;-62
2022/08/03 08:59:32;;;;;;;2.92;2.63;;;39.40;36.70;;;;;;6227956;28;20320;-62
2022/08/03 09:02:51;;;;;;;4.80;2.83;;;38.40;37.60;;;;;;6227379;28;20229;-62
2022/08/03 09:05:55;;;;;;;4.85;3.42;;;37.70;39.10;;;;;;6227716;28;20274;-61
2022/08/03 09:08:58;;;;;;;3.58;3.00;;;36.90;41.30;;;;;;6227625;28;20240;-61
2022/08/03 09:12:02;;;;;;;3.58;3.38;;;36.40;41.50;;;;;;6227387;28;20611;-61
2022/08/03 09:15:27;;;;;;;3.42;3.05;;;35.90;42.30;;;;;;6227218;28;20227;-61
2022/08/03 09:18:32;;;;;;;3.33;3.13;;;35.50;43.50;;;;;;6223644;28;20197;-61
2022/08/03 09:21:35;;;;;;;4.85;3.33;;;35.00;44.20;;;;;;6227298;28;20211;-61
2022/08/03 09:24:53;;;;;;;2.80;2.60;;;34.20;45.00;;;;;;6227406;28;20358;-61
2022/08/03 09:28:17;;;;;;;3.17;2.97;;;33.60;45.90;;;;;;6227587;28;20233;-61
2022/08/03 09:31:42;;;;;;;3.50;3.20;;;33.40;46.90;;;;;;6227563;28;20233;-61
2022/08/03 09:34:49;;;;;;;3.88;3.45;;;33.00;47.10;;;;;;6227208;28;20306;-61
2022/08/03 09:38:09;;;;;;;3.33;2.97;;;32.60;48.80;;;;;;6227225;28;20236;-61
2022/08/03 09:41:18;;;;;;;4.38;2.95;;;32.60;48.30;;;;;;6226992;28;20229;-61
2022/08/03 09:44:34;;;;;;;2.90;2.70;;;32.70;48.30;;;;;;6226628;28;20260;-61
2022/08/03 09:47:38;;;;;;;2.83;2.63;;;32.60;48.00;;;;;;6202603;28;20240;-61
2022/08/03 09:50:52;;;;;;;2.90;2.70;;;32.40;47.00;;;;;;6202137;28;20240;-61
2022/08/03 09:54:26;;;;;;;3.28;2.95;;;32.40;46.90;;;;;;6220895;28;20283;-62
2022/08/03 09:57:30;;;;;;;2.97;2.78;;;32.60;49.00;;;;;;6226184;28;20551;-61
2022/08/03 10:00:54;;;;;;;2.80;2.60;;;32.50;48.90;;;;;;6225793;28;20211;-61
2022/08/03 10:03:58;;;;;;;2.95;2.75;;;32.30;49.40;;;;;;6226153;28;20579;-61
2022/08/03 10:07:10;;;;;;;2.95;2.40;;;32.40;49.20;;;;;;6226432;28;20232;-61
2022/08/03 10:10:15;;;;;;;3.03;2.42;;;32.50;47.60;;;;;;6226308;28;20228;-61
2022/08/03 10:13:34;;;;;;;4.13;2.42;;;32.20;48.50;;;;;;6225368;28;20232;-61
2022/08/03 10:16:39;;;;;;;3.22;3.00;;;32.30;49.20;;;;;;6226484;28;20248;-61
2022/08/03 10:19:42;;;;;;;3.22;2.67;;;32.30;49.70;;;;;;6225860;28;20236;-61
2022/08/03 10:22:47;;;;;;;2.53;2.33;;;32.50;48.70;;;;;;6221653;28;20561;-61
2022/08/03 10:25:58;;;;;;;3.03;2.78;;;32.50;49.10;;;;;;6226012;28;20232;-61
2022/08/03 10:29:06;;;;;;;3.00;2.80;;;32.60;49.00;;;;;;6225462;28;20721;-61
2022/08/03 10:32:21;;;;;;;3.05;2.85;;;32.80;48.30;;;;;;6225694;28;20243;-62
2022/08/03 10:35:26;;;;;;;2.80;2.60;;;32.50;48.80;;;;;;6226309;28;20229;-66
2022/08/03 10:38:38;;;;;;;3.00;2.80;;;32.50;48.60;;;;;;6201634;28;20229;-60
2022/08/03 10:41:45;;;;;;;2.97;2.78;;;32.40;49.00;;;;;;6209474;28;20247;-61
2022/08/03 10:44:56;;;;;;;2.97;2.78;;;32.20;49.90;;;;;;6201669;28;20304;-61
2022/08/03 10:48:00;;;;;;;4.10;3.70;;;32.20;49.60;;;;;;6217949;28;20231;-62
2022/08/03 10:51:06;;;;;;;2.85;2.65;;;32.20;49.50;;;;;;6225384;28;20228;-64
2022/08/03 10:57:33;;;;;;;3.08;2.88;;;32.30;49.20;;;;;;6225446;28;20232;-63
2022/08/03 10:58:02;;;;;;;3.55;3.35;;;32.30;49.10;;;;;;6225280;28;20227;-62
2022/08/03 11:01:11;;;;;;;3.38;3.17;;;32.40;49.00;;;;;;6225534;28;20224;-63
2022/08/03 11:04:17;;;;;;;3.38;3.08;;;32.40;49.20;;;;;;6225331;28;20229;-63
2022/08/03 11:07:22;;;;;;;4.50;3.10;;;32.40;50.10;;;;;;6225271;28;20675;-63
2022/08/03 11:10:32;;;;;;;3.35;3.15;;;32.20;49.60;;;;;;6225487;28;20232;-63
2022/08/03 11:13:36;;;;;;;5.32;2.45;;;32.10;50.20;;;;;;6225532;28;20246;-62
2022/08/03 11:16:40;;;;;;;2.80;2.60;;;32.10;49.10;;;;;;6225301;28;20224;-62
2022/08/03 11:19:45;;;;;;;3.17;2.95;;;32.10;48.70;;;;;;6225868;28;20703;-62
2022/08/03 11:23:00;;;;;;;2.92;2.72;;;32.00;48.80;;;;;;6224921;28;20240;-62
2022/08/03 11:26:16;;;;;;;2.60;2.40;;;31.80;48.70;;;;;;6229736;28;20251;-62
2022/08/03 11:29:28;;;;;;;3.15;2.85;;;32.00;49.00;;;;;;6229530;28;20228;-61
2022/08/03 11:32:55;;;;;;;5.25;3.20;;;31.90;49.70;;;;;;6229352;28;20688;-61
2022/08/03 11:36:00;;;;;;;2.88;2.63;;;31.90;50.30;;;;;;6229925;28;20229;-62
2022/08/03 11:39:16;;;;;;;3.05;2.80;;;32.00;49.30;;;;;;6229958;28;20234;-62
2022/08/03 11:42:46;;;;;;;2.42;2.28;;;32.30;48.40;;;;;;6229745;28;20243;-63
2022/08/03 11:45:58;;;;;;;3.10;2.80;;;32.20;48.10;;;;;;6229919;28;20228;-62
2022/08/03 11:49:06;;;;;;;2.75;2.55;;;32.40;48.00;;;;;;6230064;28;20237;-63
2022/08/03 11:52:13;;;;;;;2.85;2.65;;;32.60;48.00;;;;;;6229244;28;20684;-62
2022/08/03 11:55:19;;;;;;;2.67;2.47;;;32.60;48.20;;;;;;6229432;28;20566;-61
2022/08/03 11:58:23;;;;;;;3.00;2.80;;;32.40;48.30;;;;;;6229458;28;20224;-62
2022/08/03 12:01:47;;;;;;;3.22;2.53;;;32.20;48.10;;;;;;6229634;28;20237;-61
2022/08/03 12:04:50;;;;;;;2.85;2.65;;;31.80;48.70;;;;;;6229410;28;20232;-62
2022/08/03 12:07:53;;;;;;;2.83;2.63;;;31.70;49.00;;;;;;6229021;28;20699;-63
2022/08/03 12:11:10;;;;;;;2.25;2.15;;;31.80;48.30;;;;;;6229007;28;20532;-63
2022/08/03 12:14:18;;;;;;;2.85;2.65;;;31.90;48.20;;;;;;6229055;28;20236;-62
2022/08/03 12:17:41;;;;;;;2.45;2.25;;;31.90;47.00;;;;;;6229361;28;20250;-62
2022/08/03 12:20:46;;;;;;;2.92;2.58;;;32.10;47.50;;;;;;6229155;28;20289;-62
2022/08/03 12:23:49;;;;;;;2.20;2.10;;;32.10;46.80;;;;;;6228753;28;20245;-62
2022/08/03 12:26:52;;;;;;;2.30;2.10;;;32.20;45.90;;;;;;6224557;28;20233;-62
2022/08/03 12:30:05;;;;;;;3.40;2.47;;;32.30;46.20;;;;;;6228649;28;20312;-62
2022/08/03 12:33:13;;;;;;;2.42;2.22;;;32.40;46.30;;;;;;6228131;28;20236;-62
2022/08/03 12:36:16;;;;;;;2.53;2.33;;;32.40;45.80;;;;;;6225318;28;20231;-63
2022/08/03 12:39:25;;;;;;;2.60;2.40;;;32.60;46.00;;;;;;6218634;28;20242;-62
2022/08/03 12:42:30;;;;;;;2.20;2.10;;;32.60;45.70;;;;;;6211554;28;20219;-62
2022/08/03 12:45:35;;;;;;;2.78;2.50;;;32.60;45.70;;;;;;6227184;28;20215;-61
2022/08/03 12:48:57;;;;;;;2.42;2.22;;;32.70;45.60;;;;;;6226510;28;20231;-61
2022/08/03 12:52:01;;;;;;;4.68;2.88;;;32.80;45.30;;;;;;6226955;28;20313;-61
2022/08/03 12:55:19;;;;;;;2.65;2.40;;;32.40;45.70;;;;;;6227540;28;20232;-61
2022/08/03 12:58:33;;;;;;;4.28;2.47;;;32.40;46.00;;;;;;6228450;28;20220;-61
2022/08/03 13:01:38;;;;;;;2.20;2.00;;;32.30;45.50;;;;;;6227960;28;20585;-61
2022/08/03 13:04:58;;;;;;;2.10;2.00;;;32.40;45.60;;;;;;6227421;28;20572;-61
2022/08/03 13:08:02;;;;;;;2.75;1.92;;;32.50;45.50;;;;;;6227020;28;20224;-61
2022/08/03 13:11:22;;;;;;;2.30;2.20;;;32.50;45.40;;;;;;6227220;28;20220;-61
2022/08/03 13:14:47;;;;;;;2.70;2.28;;;32.20;45.30;;;;;;6225080;28;20217;-61
2022/08/03 13:17:51;;;;;;;2.58;2.47;;;32.20;45.30;;;;;;6226759;28;20217;-62
2022/08/03 13:20:54;;;;;;;2.20;2.10;;;32.20;44.90;;;;;;6227257;28;20231;-62
2022/08/03 13:23:57;;;;;;;2.25;2.05;;;32.30;45.00;;;;;;6226961;28;20240;-62
2022/08/03 13:27:04;;;;;;;2.13;1.92;;;32.20;44.90;;;;;;6226671;28;20314;-62
2022/08/03 13:30:27;;;;;;;2.22;2.03;;;32.20;45.10;;;;;;6224338;28;20217;-62
2022/08/03 13:33:33;;;;;;;2.45;2.25;;;32.10;45.10;;;;;;6226858;28;20323;-62
2022/08/03 13:36:37;;;;;;;1.90;1.80;;;32.20;45.00;;;;;;6226306;28;20209;-62
2022/08/03 13:40:00;;;;;;;2.00;1.80;;;32.20;45.00;;;;;;6223619;28;20217;-61
2022/08/03 13:43:05;;;;;;;2.25;2.05;;;32.20;45.10;;;;;;6226870;28;20239;-62
2022/08/03 13:46:08;;;;;;;2.38;1.98;;;32.10;44.40;;;;;;6226201;28;20234;-62
2022/08/03 13:49:12;;;;;;;2.20;2.00;;;31.90;44.20;;;;;;6226084;28;20520;-62
2022/08/03 13:52:16;;;;;;;4.30;2.00;;;31.80;44.50;;;;;;6224040;28;20224;-61
2022/08/03 13:55:19;;;;;;;2.05;1.95;;;31.70;44.80;;;;;;6226485;28;20231;-61
2022/08/03 13:58:22;;;;;;;2.17;1.98;;;31.70;45.30;;;;;;6225714;28;20562;-61
2022/08/03 14:01:26;;;;;;;2.10;2.00;;;31.60;45.20;;;;;;6225511;28;20239;-61
2022/08/03 14:04:50;;;;;;;2.03;1.63;;;31.60;45.70;;;;;;6223673;28;20227;-62
2022/08/03 14:07:53;;;;;;;1.77;1.67;;;31.40;45.40;;;;;;6225352;28;20844;-62
2022/08/03 14:11:06;;;;;;;2.70;1.77;;;31.40;46.10;;;;;;6226077;28;20315;-62
2022/08/03 14:14:09;;;;;;;2.33;1.90;;;31.40;45.90;;;;;;6225662;28;20228;-62
2022/08/03 14:17:12;;;;;;;2.15;1.98;;;31.20;45.60;;;;;;6223755;28;20228;-62
2022/08/03 14:20:19;;;;;;;1.83;1.73;;;31.30;45.60;;;;;;6224893;28;20212;-62
2022/08/03 14:23:40;;;;;;;2.25;2.05;;;31.40;45.40;;;;;;6223353;28;20651;-62
2022/08/03 14:26:44;;;;;;;1.92;1.60;;;31.30;46.40;;;;;;6224960;28;20228;-61
2022/08/03 14:29:47;;;;;;;2.20;2.10;;;31.30;46.50;;;;;;6225134;28;20231;-61
2022/08/03 14:32:50;;;;;;;2.80;2.60;;;31.40;45.70;;;;;;6220765;28;20233;-61
2022/08/03 14:35:55;;;;;;;2.58;1.98;;;31.50;45.50;;;;;;6225282;28;20688;-62
2022/08/03 14:38:58;;;;;;;2.00;1.90;;;31.40;45.30;;;;;;6224804;28;20551;-62
2022/08/03 14:42:03;;;;;;;2.15;1.95;;;31.50;45.10;;;;;;6225071;28;20235;-61
2022/08/03 14:45:07;;;;;;;2.08;1.98;;;31.60;45.50;;;;;;6222281;28;20220;-61
2022/08/03 14:48:22;;;;;;;2.58;2.33;;;31.70;45.20;;;;;;6225179;28;20509;-61
2022/08/03 14:51:46;;;;;;;2.42;2.22;;;31.70;45.50;;;;;;6222310;28;20228;-62
2022/08/03 14:54:56;;;;;;;3.25;2.42;;;31.80;46.00;;;;;;6224258;28;20312;-62
2022/08/03 14:58:01;;;;;;;2.58;2.38;;;31.40;45.60;;;;;;6223917;28;20221;-62
2022/08/03 15:01:06;;;;;;;2.17;2.08;;;31.30;46.10;;;;;;6225471;28;20228;-62
2022/08/03 15:04:29;;;;;;;2.95;2.00;;;31.50;45.70;;;;;;6224554;28;20229;-63
2022/08/03 15:07:33;;;;;;;1.85;1.75;;;31.50;45.50;;;;;;6225301;28;20686;-61
2022/08/03 15:10:37;;;;;;;2.33;1.85;;;31.60;45.60;;;;;;6223291;28;20672;-62
2022/08/03 15:13:46;;;;;;;2.58;2.20;;;31.70;45.60;;;;;;6223107;28;20233;-62
2022/08/03 15:16:49;;;;;;;3.40;3.05;;;31.70;45.20;;;;;;6219593;28;20239;-62
2022/08/03 15:19:52;;;;;;;2.78;2.10;;;31.80;45.50;;;;;;6223189;28;20228;-63
2022/08/03 15:23:18;;;;;;;2.40;2.20;;;31.70;46.30;;;;;;6223068;28;20256;-63
2022/08/03 15:26:21;;;;;;;2.42;2.17;;;31.60;46.30;;;;;;6224226;28;20228;-62
2022/08/03 15:29:38;;;;;;;2.58;2.35;;;31.50;46.20;;;;;;6224943;28;20239;-62
2022/08/03 15:33:01;;;;;;;3.22;2.40;;;31.50;46.30;;;;;;6225207;28;20233;-63
2022/08/03 15:36:05;;;;;;;2.45;2.25;;;31.70;45.90;;;;;;6219753;28;20232;-63
2022/08/03 15:39:10;;;;;;;3.10;2.72;;;31.70;45.90;;;;;;6224925;28;20231;-63
2022/08/03 15:42:13;;;;;;;2.65;2.45;;;31.70;45.00;;;;;;6224890;28;20232;-63
2022/08/03 15:45:16;;;;;;;2.30;2.17;;;31.70;45.30;;;;;;6224733;28;20224;-62
2022/08/03 15:48:24;;;;;;;2.78;1.90;;;31.80;45.70;;;;;;6224874;28;20657;-62
2022/08/03 15:51:28;;;;;;;2.35;2.25;;;31.90;45.60;;;;;;6224779;28;20275;-62
2022/08/03 15:54:33;;;;;;;2.08;1.75;;;31.80;45.60;;;;;;6221311;28;20197;-61
2022/08/03 15:57:36;;;;;;;2.50;2.30;;;31.60;46.00;;;;;;6225144;28;20569;-62
2022/08/03 16:01:00;;;;;;;2.58;2.38;;;31.70;46.30;;;;;;6225711;28;20225;-62
2022/08/03 16:04:04;;;;;;;1.98;1.88;;;31.70;46.00;;;;;;6225813;28;20228;-61
2022/08/03 16:07:07;;;;;;;2.33;2.17;;;31.50;46.30;;;;;;6225783;28;20228;-62
2022/08/03 16:10:18;;;;;;;1.90;1.80;;;31.40;46.40;;;;;;6225503;28;20681;-61
2022/08/03 16:13:21;;;;;;;2.00;1.90;;;31.40;46.90;;;;;;6230017;28;20243;-61
2022/08/03 16:16:44;;;;;;;2.10;1.90;;;31.30;47.10;;;;;;6229294;28;20237;-62
2022/08/03 16:19:48;;;;;;;3.13;2.30;;;31.40;47.00;;;;;;6229165;28;20555;-63
2022/08/03 16:22:51;;;;;;;2.70;2.50;;;31.50;47.10;;;;;;6228780;28;20570;-62